Aérodrome :
LOGIN :

S'inscrire | Disclaimer

   EN    FR    IT 

 










Légende :    VFR   VFR Marginal   IFR   IFR Intensif   IFR Très Intensif
Visi : 
Plafond : 
>= 8 km
>= 3000ft
5 à 8 km
1000 à 3000 ft
1500m à 5 km
500 à 1000 ft
800 à 1500m
200 à 500 ft
< 800m
< 200 ft
Symboles :   Orages  Brouillard  Fortes neiges  Fortes précipitations  Vent > 20 kt
SIGMETs :   Divers  Orages  Givrage  Turbulence  Onde Orograph.  Cendres Volcan.






- Altitude de l'aérodrome : 1234 ft
- Code IATA : LUX


ELLX - Luxembourg Findel

DERNIER METAR :
  • 220820Z 23010KT 8000 -SHRA SCT003 BKN004 BKN006 14/13 Q1014 NOSIG

METARs EXPIRÉS :
  • 220750Z 22007KT 180V250 2500 -SHRA BR SCT001 BKN002 BKN003 14/14 Q1014 RERA NOSIG
  • 220720Z 20006KT 2500 -SHRA BR SCT001 BKN002 BKN003 14/14 Q1014 NOSIG
  • 220650Z 20007KT 2000 SHRA BKN002 BKN003 14/14 Q1014 NOSIG
  • 220620Z 20007KT 170V230 2000 SHRA BR SCT001 BKN002 14/13 Q1014 NOSIG
  • 220550Z 20006KT 160V220 2000 BR BKN002 13/13 Q1014 TEMPO 5000 SHRA BKN005
  • 220520Z 18006KT 140V210 2000 BR SCT001 BKN002 13/13 Q1014 TEMPO 5000 SHRA BKN005
  • 220450Z 18006KT 2000 BR SCT001 BKN002 13/13 Q1014 TEMPO 5000 SHRA BKN012
  • 220420Z 17006KT 140V200 2500 R24/1600D BR SCT001 BKN002 12/12 Q1014 NOSIG
  • 220350Z 18005KT 150V230 2500 BR OVC002 12/12 Q1014 NOSIG

TAF TAF ELLX
Valide du 22 à 06h jusqu'au 23 à 12h UTC


220500Z 2206/2312 17006KT 3000 BR BKN002
BECMG 2206/2207 9999 BKN015
TEMPO 2207/2216 5000 SHRA BKN012
PROB30
TEMPO 2212/2214 3500 -TSRA BKN010CB
BECMG 2300/2303 33005KT 3000 BR NSC
BECMG 2306/2309 CAVOK
ATIS : +352 4798 27300
Météo : +352 4798 27010 / 27050



MET'MAP, la Météo Aéronautique d'un coup d'oeil ! - Copyright ORBIFLY Décembre 2007 - Disclaimer

ORBIFLY MET'MAP TEAM :

Programmation & Développement : Alexandra Zaïnal
Sur une idée originale de : Baudouin d'Aumeries
Soutien technique & logistique : Manuel Goepfert
Assistance : Marc-Olivier Méhu




SOURCES & CREDITS :

   NOAA